Time;durP1;ratioP1;P1;durP2;ratioP2;P2;SDS_P1;SDS_P2;PMS_P1;PMS_P2;Temp;Humidity;BMP_temperature;BMP_pressure;BME280_temperature;BME280_humidity;BME280_pressure;Samples;Min_cycle;Max_cycle;Signal;HPM_P1;HPM_P2
2022/10/06 00:00:34;;;;;;;41.90;33.10;;;19.50;1.00;;;;;;5094636;28;20028;-50
2022/10/06 00:02:59;;;;;;;39.03;33.05;;;19.50;1.00;;;;;;5082261;28;20032;-48
2022/10/06 00:05:25;;;;;;;39.70;32.63;;;19.40;1.00;;;;;;5088984;28;20039;-47
2022/10/06 00:07:51;;;;;;;40.60;31.88;;;19.40;1.00;;;;;;5084078;28;20389;-50
2022/10/06 00:10:17;;;;;;;35.70;30.83;;;19.40;1.00;;;;;;5095735;28;20028;-47
2022/10/06 00:12:45;;;;;;;39.72;32.47;;;19.40;1.00;;;;;;5094629;28;20043;-48
2022/10/06 00:15:13;;;;;;;36.47;30.55;;;19.40;1.00;;;;;;5095792;28;20377;-48
2022/10/06 00:17:39;;;;;;;40.30;31.48;;;19.40;1.00;;;;;;5093902;28;20327;-50
2022/10/06 00:20:06;;;;;;;38.05;31.40;;;19.40;1.00;;;;;;5094093;28;20059;-48
2022/10/06 00:22:43;;;;;;;37.83;31.50;;;19.40;1.00;;;;;;5082142;28;20072;-48
2022/10/06 00:25:11;;;;;;;40.80;32.92;;;19.30;1.00;;;;;;5077256;28;20033;-49
2022/10/06 00:27:42;;;;;;;41.13;32.28;;;19.40;1.00;;;;;;5089036;28;20332;-49
2022/10/06 00:30:13;;;;;;;40.58;33.20;;;19.30;1.00;;;;;;5094948;28;20028;-52
2022/10/06 00:32:39;;;;;;;43.10;30.73;;;19.30;1.00;;;;;;5081095;28;20027;-48
2022/10/06 00:35:06;;;;;;;42.75;32.63;;;19.30;1.00;;;;;;5094382;28;20394;-49
2022/10/06 00:37:37;;;;;;;38.75;32.13;;;19.30;1.00;;;;;;5094502;28;20416;-49
2022/10/06 00:40:08;;;;;;;45.75;35.60;;;19.30;1.00;;;;;;5081590;28;20035;-49
2022/10/06 00:42:47;;;;;;;40.40;33.88;;;19.20;1.00;;;;;;5093113;28;20024;-50
2022/10/06 00:45:14;;;;;;;44.05;33.92;;;19.30;1.00;;;;;;5077295;28;20024;-52
2022/10/06 00:47:40;;;;;;;41.13;34.78;;;19.20;1.00;;;;;;5075318;28;20027;-47
2022/10/06 00:50:10;;;;;;;42.72;33.47;;;19.20;1.00;;;;;;5094353;28;20023;-51
2022/10/06 00:52:37;;;;;;;44.20;34.70;;;19.20;1.00;;;;;;5082820;28;20032;-52
2022/10/06 00:55:03;;;;;;;45.90;34.40;;;19.20;1.00;;;;;;5092918;28;20081;-49
2022/10/06 00:57:29;;;;;;;43.10;33.58;;;19.20;1.00;;;;;;5093828;28;20043;-50
2022/10/06 00:59:55;;;;;;;41.50;34.33;;;19.10;1.00;;;;;;5094455;28;20035;-53
2022/10/06 01:02:34;;;;;;;43.90;35.72;;;19.20;1.00;;;;;;5093285;28;20043;-51
2022/10/06 01:05:02;;;;;;;43.63;36.25;;;19.10;1.00;;;;;;5094589;28;20080;-48
2022/10/06 01:07:29;;;;;;;43.83;34.80;;;19.10;1.00;;;;;;5092892;28;20044;-53
2022/10/06 01:09:56;;;;;;;44.92;34.58;;;19.10;1.00;;;;;;5092769;28;20383;-48
2022/10/06 01:12:22;;;;;;;43.70;33.67;;;19.10;1.00;;;;;;5090312;28;20028;-52
2022/10/06 01:14:48;;;;;;;47.97;35.60;;;19.10;1.00;;;;;;5093275;28;20112;-47
2022/10/06 01:17:29;;;;;;;41.70;35.83;;;19.10;1.00;;;;;;5092406;28;20035;-51
2022/10/06 01:20:03;;;;;;;48.95;37.70;;;19.10;1.00;;;;;;5093150;28;20017;-49
2022/10/06 01:22:37;;;;;;;46.85;36.72;;;19.00;1.00;;;;;;5090725;28;20028;-48
2022/10/06 01:25:08;;;;;;;45.85;36.58;;;19.00;1.00;;;;;;5092995;28;20054;-48
2022/10/06 01:27:36;;;;;;;42.03;34.45;;;18.90;1.00;;;;;;5087482;28;20024;-50
2022/10/06 01:30:02;;;;;;;44.33;35.85;;;18.90;1.00;;;;;;5092924;28;20377;-47
2022/10/06 01:32:34;;;;;;;41.33;35.85;;;18.90;1.00;;;;;;5091590;28;20111;-48
2022/10/06 01:35:00;;;;;;;44.85;36.13;;;18.90;1.00;;;;;;5084258;28;20051;-54
2022/10/06 01:37:26;;;;;;;43.08;37.22;;;18.90;1.00;;;;;;5085026;28;20068;-48
2022/10/06 01:39:51;;;;;;;42.50;35.38;;;19.00;1.00;;;;;;5079687;28;20020;-48
2022/10/06 01:42:17;;;;;;;46.70;35.10;;;18.90;1.00;;;;;;5092625;28;20035;-47
2022/10/06 01:44:43;;;;;;;44.08;36.50;;;18.90;1.00;;;;;;5094053;28;20020;-48
2022/10/06 01:47:08;;;;;;;39.30;34.63;;;18.90;1.00;;;;;;5087592;28;20032;-48
2022/10/06 01:49:34;;;;;;;41.50;35.05;;;18.90;1.00;;;;;;5093853;28;20065;-50
2022/10/06 01:52:00;;;;;;;42.78;35.30;;;18.90;1.00;;;;;;5085069;28;20150;-48
2022/10/06 01:54:26;;;;;;;43.08;34.35;;;18.90;1.00;;;;;;5093602;28;20024;-48
2022/10/06 01:56:52;;;;;;;42.17;33.28;;;18.80;1.00;;;;;;5090152;28;20047;-49
2022/10/06 01:59:17;;;;;;;46.35;35.47;;;18.90;1.00;;;;;;5093563;28;20374;-48
2022/10/06 02:01:43;;;;;;;40.67;33.60;;;18.90;1.00;;;;;;5090410;28;20032;-48
2022/10/06 02:04:09;;;;;;;40.97;35.95;;;18.80;1.00;;;;;;5093579;28;20024;-47
2022/10/06 02:06:34;;;;;;;42.75;35.17;;;18.90;1.00;;;;;;5092950;28;20028;-49
2022/10/06 02:09:00;;;;;;;42.90;34.83;;;18.80;1.00;;;;;;5081404;28;20108;-49
2022/10/06 02:11:26;;;;;;;45.65;35.55;;;18.80;1.00;;;;;;5090219;28;20438;-48
2022/10/06 02:13:52;;;;;;;41.90;35.40;;;18.80;1.00;;;;;;5083071;28;20457;-49
2022/10/06 02:16:18;;;;;;;43.70;33.28;;;18.80;1.00;;;;;;5091768;28;20070;-48
2022/10/06 02:18:44;;;;;;;42.90;36.15;;;18.80;1.00;;;;;;5092305;28;20122;-47
2022/10/06 02:21:15;;;;;;;41.70;34.97;;;18.80;1.00;;;;;;5087528;28;20090;-48
2022/10/06 02:23:40;;;;;;;47.00;33.72;;;18.70;1.00;;;;;;5078602;28;20036;-47
2022/10/06 02:26:06;;;;;;;43.38;34.78;;;18.70;1.00;;;;;;5083616;28;20024;-49
2022/10/06 02:28:32;;;;;;;40.95;32.80;;;18.70;1.00;;;;;;5091651;28;20477;-49
2022/10/06 02:31:07;;;;;;;41.53;34.63;;;18.70;1.00;;;;;;5072859;28;20024;-47
2022/10/06 02:33:33;;;;;;;40.92;32.47;;;18.70;1.00;;;;;;5088514;28;20027;-48
2022/10/06 02:35:59;;;;;;;46.80;33.45;;;18.70;1.00;;;;;;5090889;28;20020;-47
2022/10/06 02:38:25;;;;;;;42.97;33.65;;;18.70;1.00;;;;;;5085274;28;20512;-48
2022/10/06 02:40:52;;;;;;;41.50;33.22;;;18.70;1.00;;;;;;5089827;28;20470;-52
2022/10/06 02:43:18;;;;;;;40.10;32.92;;;18.70;1.00;;;;;;5085662;28;20035;-53
2022/10/06 02:45:55;;;;;;;43.17;34.80;;;18.70;1.00;;;;;;5092767;28;20099;-47
2022/10/06 02:48:23;;;;;;;42.30;32.90;;;18.60;1.00;;;;;;5090429;28;20048;-48
2022/10/06 02:50:53;;;;;;;47.30;34.72;;;18.60;1.00;;;;;;5092202;28;20032;-47
2022/10/06 02:53:19;;;;;;;43.78;33.70;;;18.60;1.00;;;;;;5089400;28;20127;-50
2022/10/06 02:55:45;;;;;;;36.35;30.92;;;18.60;1.00;;;;;;5093133;28;20028;-46
2022/10/06 02:58:10;;;;;;;42.75;32.28;;;18.50;1.00;;;;;;5081025;28;20086;-47
2022/10/06 03:00:37;;;;;;;43.45;33.45;;;18.50;1.00;;;;;;5091888;28;20024;-48
2022/10/06 03:03:02;;;;;;;41.95;34.63;;;18.50;1.00;;;;;;5081937;28;20036;-49
2022/10/06 03:05:29;;;;;;;41.50;34.20;;;18.50;1.00;;;;;;5090959;28;20116;-47
2022/10/06 03:07:54;;;;;;;42.42;33.72;;;18.50;1.00;;;;;;5091611;28;20440;-47
2022/10/06 03:10:20;;;;;;;42.25;32.97;;;18.50;1.00;;;;;;5092287;28;20111;-47
2022/10/06 03:12:46;;;;;;;44.13;33.35;;;18.50;1.00;;;;;;5084169;28;20032;-47
2022/10/06 03:15:12;;;;;;;41.00;32.80;;;18.50;1.00;;;;;;5085221;28;20028;-49
2022/10/06 03:17:37;;;;;;;39.65;34.80;;;18.50;1.00;;;;;;5091080;28;20477;-46
2022/10/06 03:20:04;;;;;;;41.38;33.95;;;18.50;1.00;;;;;;5092348;28;20024;-47
2022/10/06 03:22:29;;;;;;;49.67;38.67;;;18.50;1.00;;;;;;5091700;28;20366;-47
2022/10/06 03:24:55;;;;;;;41.35;34.22;;;18.40;1.00;;;;;;5092513;28;20024;-47
2022/10/06 03:27:20;;;;;;;42.38;34.63;;;18.40;1.00;;;;;;5091178;28;20025;-46
2022/10/06 03:29:46;;;;;;;44.22;34.92;;;18.40;1.00;;;;;;5092125;28;20032;-47
2022/10/06 03:32:12;;;;;;;43.70;35.30;;;18.40;1.00;;;;;;5090963;28;20043;-51
2022/10/06 03:34:37;;;;;;;42.17;33.17;;;18.40;1.00;;;;;;5086995;28;20028;-53
2022/10/06 03:37:03;;;;;;;45.90;35.10;;;18.40;1.00;;;;;;5084446;28;20032;-50
2022/10/06 03:39:28;;;;;;;44.50;35.75;;;18.40;1.00;;;;;;5091063;28;20020;-51
2022/10/06 03:41:54;;;;;;;43.45;33.88;;;18.40;1.00;;;;;;5089287;28;22360;-52
2022/10/06 03:44:21;;;;;;;42.28;33.70;;;18.40;1.00;;;;;;5088772;28;20032;-49
2022/10/06 03:46:47;;;;;;;49.63;37.25;;;18.40;1.00;;;;;;5084932;28;20439;-50
2022/10/06 03:49:13;;;;;;;47.58;36.90;;;18.30;1.00;;;;;;5088132;28;20039;-49
2022/10/06 03:51:40;;;;;;;49.83;38.17;;;18.40;1.00;;;;;;5091698;28;20382;-48
2022/10/06 03:54:09;;;;;;;48.92;39.40;;;18.30;1.00;;;;;;5087170;28;20060;-47
2022/10/06 03:56:37;;;;;;;52.78;38.95;;;18.30;1.00;;;;;;5089270;28;20035;-47
2022/10/06 03:59:09;;;;;;;48.55;38.60;;;18.30;1.00;;;;;;5087043;28;20385;-47
2022/10/06 04:01:39;;;;;;;54.50;40.05;;;18.30;1.00;;;;;;5090733;28;20051;-49
2022/10/06 04:04:05;;;;;;;49.38;39.10;;;18.30;1.00;;;;;;5091197;28;20478;-46
2022/10/06 04:06:33;;;;;;;48.85;38.17;;;18.30;1.00;;;;;;5091856;28;20098;-47
2022/10/06 04:08:59;;;;;;;47.33;37.55;;;18.30;1.00;;;;;;5089092;28;20093;-47
2022/10/06 04:11:30;;;;;;;50.08;38.88;;;18.30;1.00;;;;;;5090776;28;20024;-46
2022/10/06 04:13:58;;;;;;;56.45;42.13;;;18.30;1.00;;;;;;5085139;28;20138;-50
2022/10/06 04:16:27;;;;;;;48.40;41.08;;;18.30;1.00;;;;;;5091698;28;20096;-47
2022/10/06 04:18:55;;;;;;;51.10;40.22;;;18.30;1.00;;;;;;5083127;28;20033;-47
2022/10/06 04:21:22;;;;;;;52.90;41.72;;;18.30;1.00;;;;;;5079019;28;20104;-50
2022/10/06 04:23:47;;;;;;;55.65;41.38;;;18.20;1.00;;;;;;5086286;28;20028;-47
2022/10/06 04:26:16;;;;;;;52.55;40.10;;;18.20;1.00;;;;;;5094193;28;20031;-46
2022/10/06 04:28:43;;;;;;;56.08;43.17;;;18.30;1.00;;;;;;5094453;28;20036;-48
2022/10/06 04:31:43;;;;;;;58.92;42.38;;;18.20;1.00;;;;;;5094972;28;20477;-47
2022/10/06 04:34:12;;;;;;;58.05;41.83;;;18.20;1.00;;;;;;5121010;27;20032;-48
2022/10/06 04:36:40;;;;;;;58.40;43.65;;;18.10;1.00;;;;;;5095263;28;20024;-49
2022/10/06 04:39:09;;;;;;;51.45;39.63;;;18.10;1.00;;;;;;5094163;28;20081;-47
2022/10/06 04:41:38;;;;;;;55.80;43.78;;;18.10;1.00;;;;;;5095185;28;20099;-49
2022/10/06 04:44:04;;;;;;;58.22;41.67;;;18.10;1.00;;;;;;5092913;28;20032;-47
2022/10/06 04:46:32;;;;;;;53.60;43.30;;;18.20;1.00;;;;;;5094668;28;20440;-49
2022/10/06 04:48:57;;;;;;;47.30;40.22;;;18.20;1.00;;;;;;5094327;28;20032;-47
2022/10/06 04:51:25;;;;;;;53.88;41.28;;;18.10;1.00;;;;;;5093330;28;20504;-47
2022/10/06 04:53:51;;;;;;;54.13;43.17;;;18.20;1.00;;;;;;5093894;28;20040;-49
2022/10/06 04:56:28;;;;;;;55.75;40.60;;;18.00;1.00;;;;;;5094671;28;20031;-47
2022/10/06 04:58:54;;;;;;;53.85;41.42;;;18.10;1.00;;;;;;5090804;28;20028;-47
2022/10/06 05:01:21;;;;;;;52.30;39.40;;;18.10;1.00;;;;;;5095012;28;20386;-48
2022/10/06 05:03:49;;;;;;;56.40;41.03;;;18.10;1.00;;;;;;5093789;28;20036;-51
2022/10/06 05:06:23;;;;;;;56.83;43.58;;;18.10;1.00;;;;;;5088008;28;20024;-51
2022/10/06 05:08:54;;;;;;;63.13;43.42;;;18.00;1.00;;;;;;5078986;28;20115;-50
2022/10/06 05:11:21;;;;;;;59.08;43.30;;;18.00;1.00;;;;;;5084810;28;20028;-50
2022/10/06 05:13:48;;;;;;;50.38;40.45;;;18.00;1.00;;;;;;5091269;28;20069;-50
2022/10/06 05:16:16;;;;;;;54.15;43.00;;;18.00;1.00;;;;;;5094068;28;20381;-50
2022/10/06 05:18:42;;;;;;;55.47;41.10;;;18.00;1.00;;;;;;5085202;28;20450;-48
2022/10/06 05:21:29;;;;;;;64.00;46.38;;;18.00;1.00;;;;;;5089018;28;20073;-49
2022/10/06 05:23:55;;;;;;;54.85;43.58;;;18.00;1.00;;;;;;5086744;28;20145;-49
2022/10/06 05:26:22;;;;;;;53.45;42.83;;;18.00;1.00;;;;;;5090113;28;20062;-47
2022/10/06 05:28:48;;;;;;;58.85;46.55;;;18.00;1.00;;;;;;5092114;28;20349;-49
2022/10/06 05:31:22;;;;;;;59.00;42.63;;;18.00;1.00;;;;;;5094157;28;20024;-48
2022/10/06 05:33:48;;;;;;;61.47;44.95;;;18.00;1.00;;;;;;5092925;28;20043;-48
2022/10/06 05:36:21;;;;;;;59.50;44.75;;;17.90;1.00;;;;;;5094260;28;20091;-47
2022/10/06 05:38:47;;;;;;;60.13;46.35;;;18.00;1.00;;;;;;5082612;28;20386;-47
2022/10/06 05:41:21;;;;;;;58.25;46.22;;;17.90;1.00;;;;;;5094307;28;20024;-47
2022/10/06 05:43:47;;;;;;;59.13;46.42;;;18.00;1.00;;;;;;5092383;28;20489;-47
2022/10/06 05:46:18;;;;;;;60.28;44.88;;;17.90;1.00;;;;;;5093694;28;20494;-49
2022/10/06 05:48:48;;;;;;;58.60;45.30;;;17.90;1.00;;;;;;5081785;28;20016;-49
2022/10/06 05:51:16;;;;;;;60.40;44.45;;;17.90;1.00;;;;;;5093744;28;20081;-47
2022/10/06 05:53:42;;;;;;;53.72;41.97;;;18.00;1.00;;;;;;5092246;28;20040;-49
2022/10/06 05:56:16;;;;;;;55.38;42.75;;;18.00;1.00;;;;;;5092563;28;20032;-50
2022/10/06 05:58:47;;;;;;;53.53;41.35;;;18.00;1.00;;;;;;5093764;28;20035;-48
2022/10/06 06:01:27;;;;;;;52.70;40.10;;;18.10;1.00;;;;;;5092695;28;20400;-48
2022/10/06 06:03:54;;;;;;;51.33;37.75;;;18.00;1.00;;;;;;5093985;28;20040;-48
2022/10/06 06:06:27;;;;;;;51.60;40.45;;;18.00;1.00;;;;;;5089602;28;20072;-50
2022/10/06 06:08:54;;;;;;;63.15;45.20;;;18.00;1.00;;;;;;5091791;28;20032;-48
2022/10/06 06:11:26;;;;;;;62.35;44.90;;;18.00;1.00;;;;;;5091425;28;20389;-51
2022/10/06 06:13:58;;;;;;;53.42;42.30;;;18.10;1.00;;;;;;5077730;28;20062;-50
2022/10/06 06:16:25;;;;;;;56.88;44.70;;;18.10;1.00;;;;;;5090194;28;20024;-49
2022/10/06 06:18:51;;;;;;;63.83;46.42;;;18.10;1.00;;;;;;5073549;28;20051;-49
2022/10/06 06:21:16;;;;;;;64.97;48.45;;;18.20;1.00;;;;;;5076913;28;22694;-52
2022/10/06 06:23:45;;;;;;;72.60;50.05;;;18.20;1.00;;;;;;5091522;28;20115;-51
2022/10/06 06:26:22;;;;;;;67.20;49.30;;;18.20;1.00;;;;;;5092140;28;20080;-49
2022/10/06 06:28:49;;;;;;;66.45;49.65;;;18.30;1.00;;;;;;5079600;28;20074;-48
2022/10/06 06:31:21;;;;;;;105.72;63.42;;;18.40;1.00;;;;;;5092437;28;20027;-52
2022/10/06 06:33:49;;;;;;;90.05;57.70;;;18.50;1.00;;;;;;5093160;28;20028;-50
2022/10/06 06:36:19;;;;;;;74.03;52.95;;;18.50;1.00;;;;;;5086644;28;20154;-49
2022/10/06 06:38:50;;;;;;;63.80;48.88;;;18.40;1.00;;;;;;5091241;28;20085;-47
2022/10/06 06:41:18;;;;;;;78.03;54.25;;;18.50;1.00;;;;;;5089993;28;20016;-47
2022/10/06 06:43:45;;;;;;;68.25;52.72;;;18.50;1.00;;;;;;5090353;28;20422;-49
2022/10/06 06:46:13;;;;;;;71.90;52.00;;;18.50;1.00;;;;;;5091634;28;20082;-50
2022/10/06 06:48:40;;;;;;;66.55;51.28;;;18.50;1.00;;;;;;5081358;28;20065;-50
2022/10/06 06:51:06;;;;;;;67.82;51.05;;;18.50;1.00;;;;;;5090685;28;20103;-53
2022/10/06 06:53:33;;;;;;;68.18;52.53;;;18.60;1.00;;;;;;5083505;28;20048;-52
2022/10/06 06:55:59;;;;;;;72.47;52.60;;;18.60;1.00;;;;;;5091563;28;20080;-55
2022/10/06 06:58:25;;;;;;;68.78;49.17;;;18.60;1.00;;;;;;5076762;28;20040;-66
2022/10/06 07:00:50;;;;;;;71.32;53.47;;;18.60;1.00;;;;;;5090696;28;20012;-44
2022/10/06 07:03:19;;;;;;;72.93;54.13;;;18.70;1.00;;;;;;5090548;28;20024;-44
2022/10/06 07:05:45;;;;;;;72.18;53.55;;;18.70;1.00;;;;;;5084781;28;20020;-44
2022/10/06 07:08:13;;;;;;;68.07;50.65;;;18.70;1.00;;;;;;5086332;28;20055;-45
2022/10/06 07:10:40;;;;;;;63.45;50.33;;;18.80;1.00;;;;;;5088829;28;20020;-47
2022/10/06 07:13:06;;;;;;;65.90;50.47;;;18.70;1.00;;;;;;5081863;28;20028;-48
2022/10/06 07:26:35;;;;;;;70.85;51.88;;;18.70;1.00;;;;;;5090232;28;20035;-47
2022/10/06 07:29:00;;;;;;;71.45;51.45;;;18.60;1.00;;;;;;5091844;28;20032;-49
2022/10/06 07:31:32;;;;;;;69.55;52.60;;;18.60;1.00;;;;;;5091026;28;20107;-48
2022/10/06 07:34:02;;;;;;;71.13;53.08;;;18.70;1.00;;;;;;5077873;28;20381;-48
2022/10/06 07:36:29;;;;;;;76.50;56.80;;;18.80;1.00;;;;;;5090033;28;20061;-49
2022/10/06 07:38:55;;;;;;;69.50;52.78;;;18.80;1.00;;;;;;5091944;28;20058;-48
2022/10/06 07:41:21;;;;;;;70.15;52.10;;;18.80;1.00;;;;;;5091205;28;20377;-50
2022/10/06 07:43:47;;;;;;;65.25;51.00;;;19.00;1.00;;;;;;5088376;28;20032;-49
2022/10/06 07:46:13;;;;;;;67.43;50.53;;;19.20;1.00;;;;;;5080224;28;20031;-48
2022/10/06 07:48:39;;;;;;;71.50;52.35;;;19.20;1.00;;;;;;5090808;28;20087;-49
2022/10/06 07:51:13;;;;;;;64.50;51.83;;;19.30;1.00;;;;;;5086861;28;20115;-49
2022/10/06 07:53:39;;;;;;;65.82;51.35;;;19.30;1.00;;;;;;5087495;28;20052;-53
2022/10/06 07:56:07;;;;;;;66.22;52.35;;;19.30;1.00;;;;;;5094520;28;20061;-51
2022/10/06 07:58:34;;;;;;;71.32;53.35;;;19.30;1.00;;;;;;5094747;28;20501;-50
2022/10/06 08:01:11;;;;;;;66.43;51.40;;;19.40;1.00;;;;;;5095020;28;20476;-51
2022/10/06 08:03:38;;;;;;;64.72;50.53;;;19.40;1.00;;;;;;5087073;28;20063;-50
2022/10/06 08:06:04;;;;;;;62.42;49.90;;;19.40;1.00;;;;;;5094489;28;20374;-54
2022/10/06 08:08:35;;;;;;;67.80;52.55;;;19.50;1.00;;;;;;5095332;28;20039;-54
2022/10/06 08:11:00;;;;;;;66.22;49.45;;;19.50;1.00;;;;;;5095597;28;20054;-50
2022/10/06 08:13:26;;;;;;;68.50;52.88;;;19.50;1.00;;;;;;5093753;28;20127;-49
2022/10/06 08:15:53;;;;;;;65.40;49.28;;;19.60;1.00;;;;;;5094056;28;20372;-50
2022/10/06 08:18:20;;;;;;;68.95;51.58;;;19.60;1.00;;;;;;5088074;28;20046;-51
2022/10/06 08:20:45;;;;;;;67.28;52.95;;;19.50;1.00;;;;;;5094939;28;20452;-52
2022/10/06 08:23:11;;;;;;;61.20;49.13;;;19.50;1.00;;;;;;5094176;28;20028;-49
2022/10/06 08:25:42;;;;;;;69.60;52.13;;;19.30;1.00;;;;;;5095283;28;20484;-48
2022/10/06 08:28:09;;;;;;;61.30;48.85;;;19.30;1.00;;;;;;5079923;28;20028;-47
2022/10/06 08:30:34;;;;;;;65.28;52.50;;;19.50;1.00;;;;;;5093631;28;20020;-48
2022/10/06 08:33:00;;;;;;;68.63;52.58;;;19.60;1.00;;;;;;5094170;28;20432;-46
2022/10/06 08:35:26;;;;;;;66.07;52.95;;;19.70;1.00;;;;;;5094134;28;20024;-50
2022/10/06 08:37:52;;;;;;;69.05;53.60;;;19.80;1.00;;;;;;5093012;28;20402;-48
2022/10/06 08:40:18;;;;;;;74.70;55.05;;;19.80;1.00;;;;;;5093155;28;20027;-47
2022/10/06 08:42:48;;;;;;;70.55;56.63;;;19.90;1.00;;;;;;5094116;28;20426;-48
2022/10/06 08:45:24;;;;;;;72.25;55.78;;;19.90;1.00;;;;;;5093555;28;20052;-53
2022/10/06 08:48:01;;;;;;;74.85;57.22;;;19.90;1.00;;;;;;5091681;28;20064;-50
2022/10/06 08:50:31;;;;;;;80.35;58.60;;;20.00;1.00;;;;;;5095001;28;20012;-50
2022/10/06 08:53:28;;;;;;;75.32;57.75;;;20.00;1.00;;;;;;5093674;28;20079;-53
2022/10/06 08:56:16;;;;;;;73.20;59.08;;;20.10;1.00;;;;;;5086627;28;20024;-51
2022/10/06 08:58:51;;;;;;;75.57;59.28;;;20.10;1.00;;;;;;5094727;28;20502;-51
2022/10/06 09:01:22;;;;;;;75.47;58.08;;;20.20;1.00;;;;;;5092626;28;20545;-55
2022/10/06 09:03:50;;;;;;;79.10;57.97;;;20.20;1.00;;;;;;5080247;28;20470;-51
2022/10/06 09:06:47;;;;;;;79.60;61.28;;;20.20;1.00;;;;;;5089602;28;20039;-53
2022/10/06 09:09:19;;;;;;;76.57;60.92;;;20.30;1.00;;;;;;5086980;28;20393;-55
2022/10/06 09:12:03;;;;;;;75.82;57.97;;;20.30;1.00;;;;;;5093162;28;20101;-48
2022/10/06 09:14:48;;;;;;;73.32;59.17;;;20.30;1.00;;;;;;5092732;28;20162;-50
2022/10/06 09:17:23;;;;;;;79.47;62.53;;;20.30;1.00;;;;;;5092026;28;20040;-51
2022/10/06 09:19:58;;;;;;;74.80;59.38;;;20.20;1.00;;;;;;5094105;28;20396;-52
2022/10/06 09:22:27;;;;;;;74.47;58.65;;;20.30;1.00;;;;;;5093345;28;20032;-48
2022/10/06 09:24:58;;;;;;;72.65;57.00;;;20.30;1.00;;;;;;5092642;28;20024;-49
2022/10/06 09:27:32;;;;;;;71.80;57.28;;;20.30;1.00;;;;;;5092529;28;20125;-49
2022/10/06 09:30:00;;;;;;;;;;;20.50;1.00;;;;;;5094300;28;20146;-54
2022/10/06 09:32:27;;;;;;;76.72;58.85;;;20.60;1.00;;;;;;5108611;28;19943;-54
2022/10/06 09:34:56;;;;;;;70.75;55.88;;;20.70;1.00;;;;;;5094072;28;20381;-48
2022/10/06 09:37:22;;;;;;;76.95;56.75;;;20.90;1.00;;;;;;5090114;28;20028;-56
2022/10/06 09:39:50;;;;;;;69.78;56.55;;;21.00;1.00;;;;;;5093430;28;20028;-48
2022/10/06 09:42:25;;;;;;;73.15;58.08;;;21.10;1.00;;;;;;5087505;28;20036;-51
2022/10/06 09:45:15;;;;;;;73.38;59.60;;;21.10;1.00;;;;;;5086344;28;20106;-50
2022/10/06 09:47:44;;;;;;;75.63;58.00;;;21.20;1.00;;;;;;5081519;28;20027;-49
2022/10/06 09:50:19;;;;;;;77.30;61.45;;;21.30;1.00;;;;;;5092687;28;20016;-52
2022/10/06 09:53:15;;;;;;;70.18;58.53;;;21.40;1.00;;;;;;5089285;28;20040;-56
2022/10/06 09:55:44;;;;;;;65.65;54.33;;;21.40;1.00;;;;;;5075987;28;20405;-47
2022/10/06 09:58:28;;;;;;;69.07;55.25;;;21.40;1.00;;;;;;5091084;28;20040;-50
2022/10/06 10:00:58;;;;;;;69.95;56.95;;;21.50;1.00;;;;;;5090795;28;20024;-54
2022/10/06 10:03:30;;;;;;;72.32;54.67;;;21.50;1.00;;;;;;5092483;28;20470;-59
2022/10/06 10:05:55;;;;;;;66.97;54.17;;;21.60;1.00;;;;;;5092301;28;20039;-56
2022/10/06 10:08:26;;;;;;;66.35;49.67;;;21.70;1.00;;;;;;5092209;28;20023;-61
2022/10/06 10:14:03;;;;;;;68.13;55.25;;;22.10;1.00;;;;;;5088432;28;20040;-55
2022/10/06 10:16:33;;;;;;;70.05;55.83;;;22.10;1.00;;;;;;5073005;28;20025;-57
2022/10/06 10:19:00;;;;;;;66.68;54.75;;;22.10;1.00;;;;;;5087429;28;20466;-60
2022/10/06 10:21:32;;;;;;;68.18;55.38;;;22.20;1.00;;;;;;5085417;28;20025;-59
2022/10/06 10:24:01;;;;;;;64.38;56.45;;;22.30;1.00;;;;;;5091673;28;20050;-55
2022/10/06 10:26:53;;;;;;;67.53;56.40;;;22.30;1.00;;;;;;5091991;28;20069;-59
2022/10/06 10:29:30;;;;;;;67.75;55.00;;;22.30;1.00;;;;;;5078644;28;20035;-60
2022/10/06 10:32:11;;;;;;;73.28;57.20;;;22.20;1.00;;;;;;5091120;28;20107;-58
2022/10/06 10:34:42;;;;;;;72.25;56.97;;;22.20;1.00;;;;;;5092706;28;20028;-59
2022/10/06 10:37:13;;;;;;;66.72;56.97;;;22.30;1.00;;;;;;5091808;28;20036;-59
2022/10/06 10:39:47;;;;;;;67.50;56.90;;;22.50;1.00;;;;;;5092730;28;20046;-58
2022/10/06 10:42:17;;;;;;;66.63;57.33;;;22.40;1.00;;;;;;5091880;28;20437;-57
2022/10/06 10:44:58;;;;;;;73.20;59.83;;;22.40;1.00;;;;;;5092610;28;20016;-48
2022/10/06 10:47:30;;;;;;;68.55;56.10;;;22.50;1.00;;;;;;5090250;28;20440;-60
2022/10/06 10:50:06;;;;;;;75.18;61.22;;;22.50;1.00;;;;;;5092278;28;20104;-59
2022/10/06 10:52:40;;;;;;;71.47;59.45;;;22.50;1.00;;;;;;5091464;28;20051;-47
2022/10/06 10:55:18;;;;;;;;;;;22.50;1.00;;;;;;5092316;28;20024;-47
2022/10/06 10:57:45;;;;;;;69.55;59.17;;;22.50;1.00;;;;;;5090748;28;20416;-44
2022/10/06 11:00:16;;;;;;;68.97;58.45;;;22.60;1.00;;;;;;5092149;28;20012;-45
2022/10/06 11:02:42;;;;;;;65.47;55.78;;;22.70;1.00;;;;;;5091188;28;20456;-47
2022/10/06 11:05:35;;;;;;;76.18;60.97;;;22.80;1.00;;;;;;5091520;28;20034;-49
2022/10/06 11:08:23;;;;;;;74.93;59.40;;;22.90;1.00;;;;;;5088984;28;20028;-50
2022/10/06 11:10:59;;;;;;;69.60;58.50;;;23.00;1.00;;;;;;5090969;28;20084;-49
2022/10/06 11:13:38;;;;;;;71.45;59.25;;;23.00;1.00;;;;;;5077675;28;20040;-49
2022/10/06 11:16:18;;;;;;;76.80;59.63;;;23.00;1.00;;;;;;5090849;28;20067;-53
2022/10/06 11:19:13;;;;;;;74.63;60.47;;;23.00;1.00;;;;;;5091896;28;20054;-54
2022/10/06 11:21:58;;;;;;;67.70;59.22;;;23.00;1.00;;;;;;5084481;28;20085;-49
2022/10/06 11:24:41;;;;;;;74.57;60.70;;;23.10;1.00;;;;;;5091294;28;20103;-51
2022/10/06 11:27:16;;;;;;;74.78;63.05;;;23.10;1.00;;;;;;5089126;28;20032;-50
2022/10/06 11:30:06;;;;;;;69.63;58.47;;;23.00;1.00;;;;;;5078124;28;20113;-51
2022/10/06 11:32:46;;;;;;;72.60;60.67;;;23.00;1.00;;;;;;5090429;28;20031;-49
2022/10/06 11:35:22;;;;;;;68.93;59.13;;;23.10;1.00;;;;;;5090130;28;20020;-53
2022/10/06 11:38:11;;;;;;;69.45;55.90;;;23.10;1.00;;;;;;5088807;28;20073;-54
2022/10/06 11:41:08;;;;;;;68.00;57.58;;;23.20;1.00;;;;;;5090125;28;20085;-56
2022/10/06 11:44:03;;;;;;;64.22;55.78;;;23.20;1.00;;;;;;5089607;28;20015;-52
2022/10/06 11:46:58;;;;;;;67.75;57.38;;;23.30;1.00;;;;;;5085834;28;20059;-54
2022/10/06 11:49:27;;;;;;;;;;;23.30;1.00;;;;;;5089906;28;20067;-50
2022/10/06 11:51:53;;;;;;;67.13;55.03;;;23.30;1.00;;;;;;5091353;28;19908;-53
2022/10/06 11:54:33;;;;;;;59.20;51.85;;;23.30;1.00;;;;;;5089416;28;20027;-53
2022/10/06 11:56:59;;;;;;;61.92;51.65;;;23.40;1.00;;;;;;5087256;28;20043;-50
2022/10/06 11:59:27;;;;;;;62.72;53.90;;;23.40;1.00;;;;;;5091789;28;20505;-49
2022/10/06 12:01:57;;;;;;;61.08;52.90;;;23.40;1.00;;;;;;5090599;28;20020;-49
2022/10/06 12:04:25;;;;;;;68.78;56.58;;;23.50;1.00;;;;;;5091513;28;20063;-53
2022/10/06 12:06:55;;;;;;;61.55;52.85;;;23.50;1.00;;;;;;5082938;28;20065;-50
2022/10/06 12:09:29;;;;;;;68.40;55.67;;;23.60;1.00;;;;;;5077967;28;20031;-52
2022/10/06 12:12:24;;;;;;;67.50;52.95;;;23.60;1.00;;;;;;5090690;28;20032;-53
2022/10/06 12:15:20;;;;;;;62.85;53.00;;;23.70;1.00;;;;;;5080673;28;20028;-49
2022/10/06 12:18:12;;;;;;;57.35;50.00;;;23.70;1.00;;;;;;5085588;28;20170;-51
2022/10/06 12:21:05;;;;;;;66.18;54.65;;;23.80;1.00;;;;;;5091019;28;20043;-54
2022/10/06 12:23:53;;;;;;;62.58;52.65;;;23.70;1.00;;;;;;5091292;28;20027;-51
2022/10/06 12:26:19;;;;;;;63.80;54.20;;;23.60;1.00;;;;;;5090148;28;20112;-51
2022/10/06 12:28:56;;;;;;;63.25;53.88;;;23.70;1.00;;;;;;5090981;28;20087;-48
2022/10/06 12:32:05;;;;;;;56.40;46.92;;;23.80;1.00;;;;;;5087154;28;20028;-54
2022/10/06 12:34:40;;;;;;;58.67;48.58;;;23.80;1.00;;;;;;5089584;28;20036;-49
2022/10/06 12:37:28;;;;;;;53.75;47.03;;;23.70;1.00;;;;;;5070715;28;20036;-51
2022/10/06 12:40:34;;;;;;;58.10;47.38;;;23.70;1.00;;;;;;5081462;28;20063;-53
2022/10/06 12:43:23;;;;;;;55.22;48.20;;;24.00;1.00;;;;;;5082876;28;20350;-58
2022/10/06 12:45:56;;;;;;;53.08;46.45;;;24.10;1.00;;;;;;5094817;28;20164;-55
2022/10/06 12:48:43;;;;;;;61.05;51.58;;;24.40;1.00;;;;;;5093881;28;20024;-58
2022/10/06 12:51:12;;;;;;;53.80;44.33;;;24.50;1.00;;;;;;5094634;28;20028;-52
2022/10/06 12:53:59;;;;;;;57.28;49.63;;;24.60;1.00;;;;;;5076875;28;20142;-55
2022/10/06 12:56:33;;;;;;;59.45;49.92;;;24.50;1.00;;;;;;5082149;28;20031;-51
2022/10/06 12:59:19;;;;;;;;;;;24.50;1.00;;;;;;5091750;28;20036;-58
2022/10/06 13:01:46;;;;;;;57.33;49.42;;;24.50;1.00;;;;;;5079712;28;19944;-57
2022/10/06 13:04:39;;;;;;;55.38;49.40;;;24.40;1.00;;;;;;5094499;28;20127;-53
2022/10/06 13:07:14;;;;;;;49.83;44.38;;;24.60;1.00;;;;;;5093392;28;20392;-56
2022/10/06 13:09:40;;;;;;;54.03;46.00;;;24.70;1.00;;;;;;5093154;28;20036;-56
2022/10/06 13:12:27;;;;;;;52.08;44.05;;;24.60;1.00;;;;;;5093088;28;20028;-53